Date,TemperatureHighF,TemperatureAvgF,TemperatureLowF,DewpointHighF,DewpointAvgF,DewpointLowF,HumidityHigh,HumidityAvg,HumidityLow,PressureMaxIn,PressureMinIn,WindSpeedMaxMPH,WindSpeedAvgMPH,GustSpeedMaxMPH,PrecipitationSumIn
2014-1-5,56.2,56.2,56.2,28.2,28.2,28.2,34,34,34,0.00,40.00,2,2,0,0.00
2014-1-6,58.6,52.6,49.6,25.2,18.7,-5.3,35,27,9,25.20,25.14,17,8,0,0.00
2014-1-7,51.6,48.5,45.0,40.2,31.1,-10.9,73,54,7,25.14,25.09,19,8,0,0.00
2014-1-8,48.1,44.8,41.6,34.5,21.9,1.1,75,46,15,25.14,25.10,16,8,0,0.00
2014-2-12,55.5,55.5,55.5,29.6,29.6,29.6,37,37,37,0.00,40.00,2,2,0,0.00
2014-2-13,68.1,62.1,60.2,53.2,44.1,28.6,67,54,30,25.11,25.06,3,2,0,0.00
2014-2-14,56.7,56.7,56.7,30.7,30.7,30.7,37,37,37,0.00,40.00,2,2,0,0.00
2014-2-20,62.3,62.3,62.3,45.9,45.9,45.9,55,55,55,0.00,40.00,3,3,0,0.00
2014-2-21,65.2,63.9,62.5,40.0,38.9,37.6,42,40,36,25.02,25.02,2,2,0,0.00
2014-2-24,53.2,53.2,53.2,33.0,33.0,33.0,46,46,46,0.00,40.00,7,7,0,0.00
2014-2-25,58.3,49.8,42.6,34.9,33.3,31.1,69,54,37,24.92,24.89,31,8,0,0.00
2014-2-26,43.3,40.4,36.6,42.8,39.2,29.8,99,96,63,24.93,24.81,41,17,0,0.00
2014-2-27,46.5,39.6,34.7,43.7,36.3,23.3,99,89,44,24.97,24.67,37,12,0,0.00
2014-2-28,45.6,37.9,33.4,45.1,37.4,32.9,99,98,96,24.66,24.47,53,21,0,0.00
2014-3-1,40.3,38.2,35.3,40.0,37.9,35.0,99,99,99,24.87,24.55,57,16,0,0.00
2014-3-2,42.8,39.5,36.8,41.0,37.1,20.7,100,93,42,25.17,24.87,40,13,0,0.00
2014-3-3,50.5,44.3,39.1,43.0,38.9,20.0,97,82,42,25.18,25.07,21,5,0,0.00
2014-3-4,48.3,45.4,42.5,47.8,43.9,40.1,99,95,77,25.10,25.02,19,6,0,0.00
2014-3-5,58.2,49.4,45.0,48.7,43.1,35.6,98,80,48,25.11,25.05,16,4,0,0.00
2014-3-6,49.2,44.0,36.7,48.8,36.0,20.1,99,76,37,0.00,40.00,20,9,0,0.00
2014-3-7,50.6,43.2,34.8,37.9,29.7,13.5,91,60,27,25.16,25.10,21,10,0,0.00
2014-3-8,61.6,52.9,42.0,41.8,30.7,8.2,78,44,15,25.17,25.11,18,6,0,0.00
2014-3-9,56.9,53.3,50.0,30.9,20.1,5.2,44,28,13,25.16,25.09,24,9,0,0.00
2014-3-10,52.7,47.9,43.4,45.4,29.5,3.2,94,53,15,25.13,25.05,21,9,0,0.00
2014-3-11,57.2,48.0,40.2,30.7,21.2,-1.4,48,36,12,25.12,25.01,26,9,0,0.00
2014-3-12,50.6,45.9,38.4,29.6,22.3,6.1,68,41,18,0.00,40.00,19,9,0,0.00
2014-3-13,56.7,50.0,44.8,23.9,17.7,-13.0,40,29,6,25.08,25.02,17,9,0,0.00
2014-3-14,62.1,53.8,48.9,30.0,9.7,-35.3,42,20,2,25.18,25.06,18,8,0,0.00
2014-3-15,65.0,55.7,49.3,37.8,28.8,15.1,53,37,19,25.26,25.16,24,9,0,0.00
2014-3-16,70.9,62.3,52.4,37.0,12.2,-29.5,38,16,2,25.26,25.11,16,7,0,0.00
2014-3-17,56.0,47.5,39.3,36.4,26.4,13.0,83,46,20,25.00,24.94,22,8,0,0.00
2014-3-18,57.8,49.3,41.1,29.4,22.0,10.7,50,34,26,24.98,24.91,28,7,0,0.00
2014-3-19,57.4,50.7,45.4,29.4,22.3,14.7,46,34,21,25.06,24.98,20,6,0,0.00
2014-3-20,60.4,51.6,47.3,37.3,25.5,12.5,62,37,22,25.05,24.94,15,5,0,0.00
2014-3-21,58.6,51.7,46.2,39.8,25.0,-29.7,57,37,3,24.95,24.91,11,2,0,0.00
2014-3-22,58.2,51.0,45.7,39.2,24.6,-2.2,66,37,12,25.07,24.96,11,4,0,0.00
2014-3-23,59.7,51.3,46.3,37.7,31.7,20.7,57,47,32,25.10,25.05,11,4,0,0.00
2014-3-24,65.5,56.6,49.2,37.9,21.6,-0.2,46,27,11,25.11,25.01,12,4,0,0.00
2014-3-25,54.6,46.8,34.6,42.0,25.2,-7.1,97,52,9,25.01,24.83,21,10,0,0.00
2014-3-26,39.8,35.2,31.6,39.3,34.6,30.8,98,98,97,25.03,24.83,30,13,0,0.00
2014-3-27,42.3,37.0,32.0,41.3,34.8,31.3,99,92,74,25.18,25.03,14,6,0,0.00
2014-3-28,55.2,45.1,38.4,45.0,37.3,31.5,86,74,59,25.21,25.13,18,4,0,0.00
2014-3-29,46.5,41.7,32.1,42.3,36.0,30.0,97,81,56,25.14,24.97,24,11,0,0.00
2014-3-30,40.6,34.3,30.7,39.0,32.7,20.6,98,94,56,25.14,24.98,21,9,0,0.00
2014-3-31,36.1,32.0,27.3,32.5,28.2,17.7,97,87,47,25.11,24.88,42,8,0,0.00
2014-4-1,32.6,30.1,27.4,32.1,29.4,26.7,98,97,96,25.04,24.92,27,6,0,0.00
2014-4-2,38.2,32.6,28.6,36.6,31.1,26.2,98,94,66,25.16,24.94,18,4,0,0.00
2014-4-3,47.2,38.7,34.1,39.9,29.5,14.0,86,70,39,25.16,25.07,15,6,0,0.00
2014-4-4,38.5,33.7,31.5,37.1,30.3,13.3,98,89,41,25.07,24.98,25,10,0,0.00
2014-4-5,44.8,38.4,32.1,39.2,33.8,27.9,99,85,56,25.22,25.06,19,8,0,0.00
2014-4-6,57.2,49.4,42.2,43.6,37.2,28.4,84,63,47,25.24,25.13,23,11,0,0.00
2014-4-7,68.5,58.6,50.1,44.3,35.1,20.6,68,44,23,25.14,25.08,25,9,0,0.00
2014-4-8,70.6,61.6,57.1,43.7,30.3,15.3,48,31,19,25.09,25.00,15,4,0,0.00
2014-4-9,69.8,60.6,55.0,43.4,23.6,5.0,51,26,11,25.02,24.95,14,5,0,0.00
2014-4-10,68.7,61.5,56.3,41.5,25.1,-2.4,54,27,8,24.98,24.89,9,3,0,0.00
2014-4-11,66.8,59.1,54.0,45.0,32.7,13.4,58,38,17,24.91,24.81,10,3,0,0.00
2014-4-12,63.2,56.8,52.6,45.4,25.2,9.0,65,32,16,24.89,24.81,16,5,0,0.00
2014-4-13,68.9,59.3,51.4,47.3,24.0,-9.6,56,29,6,24.97,24.89,16,5,0,0.00
2014-4-14,67.4,57.7,49.6,44.5,32.5,21.3,74,40,26,25.05,24.95,20,7,0,0.00
2014-4-15,68.8,59.2,55.5,39.4,24.4,-21.6,51,28,3,25.02,24.90,15,6,0,0.00
2014-4-16,68.0,60.4,53.8,43.6,31.4,11.2,58,34,17,24.90,24.82,20,6,0,0.00
2014-4-17,65.9,57.1,47.9,49.7,38.0,23.2,73,50,31,24.85,24.79,22,6,0,0.00
2014-4-18,63.4,54.4,46.4,47.2,36.7,17.5,75,52,25,24.92,24.82,18,5,0,0.00
2014-4-19,61.3,54.4,48.4,37.3,20.9,-19.8,58,31,4,25.07,24.92,14,7,0,0.00
2014-4-20,66.0,58.4,53.6,39.5,14.3,-43.8,46,23,1,25.09,25.04,13,5,0,0.00
2014-4-21,67.0,57.2,43.3,37.0,22.1,-1.0,67,27,13,25.06,24.89,25,6,0,0.00
2014-4-22,47.1,36.0,30.4,37.8,28.3,-1.5,97,77,13,25.12,24.86,26,12,0,0.00
2014-4-23,49.2,41.2,34.0,34.8,22.9,5.8,79,49,28,25.16,25.11,19,9,0,0.00
2014-4-24,56.7,48.4,39.9,42.7,31.9,14.4,79,55,23,25.11,24.98,18,8,0,0.00
2014-4-25,48.2,36.4,29.9,39.9,35.1,20.2,98,95,35,24.98,24.79,31,14,0,0.00
2014-4-26,38.5,32.1,29.4,36.5,30.9,27.1,98,95,81,25.14,24.87,25,6,0,0.00
2014-4-27,50.7,42.2,31.0,44.0,31.8,5.5,98,70,22,25.16,25.11,18,10,0,0.00
2014-4-28,54.1,49.1,41.9,39.4,35.2,27.0,73,59,42,25.19,25.14,30,9,0,0.00
2014-4-29,71.0,59.1,49.0,39.2,31.6,22.8,50,36,25,25.20,25.08,29,11,0,0.00
2014-4-30,75.5,64.7,58.5,40.9,33.1,26.1,40,31,23,25.08,25.01,14,5,0,0.00
2014-5-1,75.7,66.4,61.3,39.4,28.2,11.7,36,24,13,25.07,25.01,14,5,0,0.00
2014-5-2,73.3,65.2,58.9,39.5,22.3,-5.5,41,21,6,25.05,24.95,14,6,0,0.00
2014-5-3,66.4,59.1,51.4,45.2,22.0,-14.6,50,26,5,24.96,24.89,14,7,0,0.00
2014-5-4,58.6,51.2,37.3,45.7,31.7,-4.0,86,51,11,24.98,24.89,26,8,0,0.00
2014-5-5,50.7,44.0,31.5,41.9,30.9,-0.7,97,66,12,24.98,24.90,31,10,0,0.00
2014-5-6,43.8,36.9,30.7,38.7,32.4,23.7,98,85,46,25.03,24.90,35,14,0,0.00
2014-5-7,49.7,44.9,39.1,42.4,25.7,6.8,84,50,19,25.02,24.97,21,10,0,0.00
2014-5-8,53.4,46.3,40.5,48.3,35.4,12.3,98,70,26,25.10,25.01,26,12,0,0.00
2014-5-9,54.9,47.9,41.2,41.8,29.8,-4.2,86,55,10,25.12,25.08,23,11,0,0.00
2014-5-10,50.1,43.4,35.8,34.1,19.9,-7.7,90,46,10,25.09,24.98,30,13,0,0.00
2014-5-11,56.2,48.1,39.5,33.1,25.3,7.5,71,43,18,25.11,25.05,22,9,0,0.00
2014-5-12,68.5,58.9,51.0,31.0,25.1,18.1,37,28,19,25.12,25.06,17,6,0,0.00
2014-5-13,73.2,64.6,57.0,34.3,24.5,12.7,37,22,13,25.12,25.06,17,5,0,0.00
2014-5-14,78.3,68.2,61.3,38.0,29.6,21.9,32,24,18,25.11,25.04,13,6,0,0.00
2014-5-15,80.2,70.3,64.4,40.0,31.5,12.5,33,24,12,25.06,24.99,18,6,0,0.00
2014-5-16,75.7,68.0,61.5,36.9,22.0,7.1,28,18,10,25.02,24.92,15,7,0,0.00
2014-5-17,65.1,57.6,47.5,32.0,14.6,-22.7,51,22,3,24.94,24.88,24,12,0,0.00
2014-5-18,54.9,47.8,40.3,43.4,34.6,18.1,88,62,31,24.96,24.90,25,12,0,0.00
2014-5-19,52.0,42.6,35.7,42.5,33.0,22.1,96,70,45,24.98,24.94,26,13,0,0.00
2014-5-20,46.2,39.6,34.1,42.2,37.4,32.6,98,92,61,25.07,24.94,23,9,0,0.00
2014-5-21,62.6,52.4,45.2,48.8,42.0,31.0,85,68,53,25.06,24.95,23,9,0,0.00
2014-5-22,63.4,56.1,51.7,47.9,39.1,21.0,70,54,24,24.99,24.92,14,6,0,0.00
2014-5-23,68.4,60.0,53.3,43.5,39.1,32.8,66,47,33,25.01,24.96,26,10,0,0.00
2014-5-24,68.0,60.4,51.9,49.2,37.9,-0.4,72,48,8,24.98,24.93,28,12,0,0.00
2014-5-25,77.6,69.3,63.2,46.3,27.2,-10.2,44,23,4,24.98,24.89,21,8,0,0.00
2014-5-26,74.4,66.8,61.5,42.8,22.8,-3.6,42,21,6,24.96,24.89,24,10,0,0.00
2014-5-27,71.5,64.3,55.2,36.5,8.8,-39.0,32,14,1,24.97,24.92,22,9,0,0.00
2014-5-28,64.3,57.2,51.8,34.0,12.8,-19.5,41,20,4,24.96,24.92,21,9,0,0.00
2014-5-29,67.1,57.8,50.5,34.7,24.1,3.8,37,28,13,24.95,24.91,21,5,0,0.00
2014-5-30,67.8,59.7,54.6,42.5,24.8,-7.2,47,28,7,24.92,24.88,16,4,0,0.00
2014-5-31,69.4,60.7,55.1,40.9,13.8,-43.4,49,21,1,24.92,24.88,16,5,0,0.00
2014-6-1,72.4,64.0,58.4,39.7,25.8,7.9,36,24,12,24.90,24.80,10,4,0,0.00
2014-6-2,66.6,60.1,55.6,45.5,21.7,-4.4,54,25,8,24.85,24.78,13,5,0,0.00
2014-6-3,71.3,64.1,57.8,44.6,30.5,6.6,51,31,12,24.87,24.83,10,2,0,0.00
2014-6-4,75.0,66.4,60.2,41.6,26.7,-10.2,45,24,5,24.86,24.83,13,4,0,0.00
2014-6-5,75.2,66.2,61.3,42.3,33.2,10.1,39,30,11,24.84,24.80,16,7,0,0.00
2014-6-6,75.5,68.7,62.9,42.3,24.0,-4.6,34,20,6,24.82,24.78,14,6,0,0.00
2014-6-7,82.3,72.5,65.0,39.1,16.4,-14.8,36,14,3,24.81,24.77,18,7,0,0.00
2014-6-8,84.9,75.2,69.4,43.0,32.7,19.2,36,22,14,24.80,24.75,11,4,0,0.00
2014-6-9,84.6,75.8,68.9,43.4,37.2,-7.2,34,25,4,24.75,24.69,16,6,0,0.00
2014-6-10,82.3,74.1,67.5,52.6,27.6,-33.4,49,23,1,24.75,24.67,19,6,0,0.00
2014-6-11,78.0,70.8,65.6,51.4,36.0,10.2,44,29,11,24.79,24.72,14,6,0,0.00
2014-6-12,72.0,64.6,54.6,42.5,19.8,-11.3,44,21,4,24.87,24.79,21,8,0,0.00
2014-6-13,67.5,59.8,54.4,40.0,14.8,-16.7,48,19,4,24.94,24.86,19,8,0,0.00
2014-6-14,70.2,61.3,54.1,37.2,24.7,-15.6,51,27,4,24.92,24.84,21,9,0,0.00
2014-6-15,61.3,54.6,48.2,43.6,30.2,2.6,62,42,12,24.85,24.78,31,14,0,0.00
2014-6-16,57.3,49.8,44.3,40.3,19.9,-11.2,67,34,7,24.94,24.84,27,16,0,0.00
2014-6-17,60.4,53.5,47.9,36.7,17.2,-15.7,56,29,6,24.95,24.91,22,8,0,0.00
2014-6-18,69.9,60.0,51.9,35.8,27.7,16.0,36,29,20,24.98,24.93,27,8,0,0.00
2014-6-19,76.1,67.1,61.2,38.0,23.0,-11.0,33,20,4,24.97,24.94,14,4,0,0.00
2014-6-20,74.4,68.0,61.7,40.5,19.4,-1.3,41,17,7,24.94,24.90,17,8,0,0.00
2014-6-21,72.7,66.9,60.7,27.8,6.1,-37.0,23,11,1,24.90,24.85,17,9,0,0.00
2014-6-22,69.0,61.7,55.3,40.2,22.6,-5.3,49,24,6,24.91,24.85,21,12,0,0.00
2014-6-23,76.4,66.3,56.7,40.6,27.0,11.8,43,23,15,24.94,24.90,23,10,0,0.00
2014-6-24,69.3,62.0,57.2,42.5,35.6,21.7,50,38,20,24.97,24.91,32,14,0,0.00
2014-6-25,68.3,61.5,54.1,50.4,39.8,19.5,60,46,20,24.96,24.92,20,10,0,0.00
2014-6-26,59.5,54.9,49.0,46.5,41.7,33.5,86,62,41,24.96,24.88,19,10,0,0.00
2014-6-27,69.6,62.5,54.8,50.3,36.1,-14.1,66,40,4,24.98,24.91,18,7,0,0.00
2014-6-28,72.4,67.6,61.8,43.6,13.6,-22.4,43,16,2,24.92,24.87,14,7,0,0.00
2014-6-29,81.9,73.9,66.0,39.0,15.4,-34.9,26,14,1,24.91,24.83,17,6,0,0.00
2014-6-30,86.6,78.0,73.0,47.4,40.1,29.9,38,26,19,24.83,24.75,14,5,0,0.00
2014-7-1,84.3,77.5,71.7,49.1,41.2,33.7,35,27,22,24.76,24.73,13,4,0,0.00
2014-7-2,82.0,74.0,65.2,47.2,35.6,23.4,43,26,15,24.83,24.74,18,6,0,0.00
2014-7-3,82.4,73.2,64.1,42.9,32.6,-0.8,39,24,6,24.88,24.83,15,5,0,0.00
2014-7-4,82.4,74.2,70.0,42.2,33.8,19.5,34,23,14,24.92,24.85,14,4,0,0.00
2014-7-5,83.8,74.4,69.6,40.5,24.0,-34.9,31,18,1,24.97,24.92,15,5,0,0.00
2014-7-6,84.9,77.2,69.9,39.3,19.9,-30.6,31,14,1,24.96,24.89,13,5,0,0.00
2014-7-7,85.4,79.2,72.2,35.5,9.1,-31.3,22,9,1,24.88,24.80,16,7,0,0.00
2014-7-8,85.7,75.0,70.2,37.7,21.7,4.9,19,14,7,24.85,24.80,16,8,0,0.00
2014-7-16,77.5,71.8,65.9,56.6,53.1,47.2,64,52,40,24.90,24.86,10,3,0,0.00
2014-7-17,74.5,66.8,62.3,54.4,49.6,44.0,70,54,41,24.90,24.87,12,4,0,0.00
2014-7-21,71.8,66.7,62.7,55.4,46.8,28.2,63,49,27,24.96,24.94,20,6,0,0.00
2014-7-22,73.9,65.7,60.4,46.4,33.4,15.8,45,31,17,25.00,24.95,20,7,0,0.00
2014-7-23,72.9,65.5,59.1,54.1,35.5,8.0,61,36,12,25.03,24.97,15,6,0,0.00
2014-7-24,77.7,69.1,59.5,46.3,42.9,28.4,58,39,27,24.98,24.84,12,4,0,0.00
2014-7-25,82.7,72.8,65.6,50.0,47.0,42.8,56,41,28,24.86,24.83,11,3,0,0.00
2014-7-26,84.4,74.5,68.2,51.2,44.4,31.0,47,35,23,24.90,24.86,14,4,0,0.00
2014-7-27,87.1,77.6,70.5,45.3,30.4,-6.7,40,19,4,24.93,24.89,13,3,0,0.00
2014-7-28,84.5,76.7,71.6,49.1,41.7,32.0,40,29,20,24.95,24.89,9,3,0,0.00
2014-7-29,84.4,75.9,70.0,49.4,47.0,40.9,47,36,28,24.96,24.92,14,4,0,0.00
2014-7-30,85.6,77.4,71.8,48.4,44.5,35.8,40,32,24,24.92,24.89,13,4,0,0.00
2014-7-31,85.6,78.6,73.9,41.9,34.3,16.3,31,21,10,24.91,24.86,14,4,0,0.00
2014-8-1,87.6,78.9,72.6,41.2,25.9,16.0,32,15,9,24.87,24.83,15,5,0,0.00
2014-8-2,80.0,74.7,69.8,40.6,30.8,20.4,27,20,15,24.89,24.83,21,10,0,0.00
2014-8-3,80.3,71.6,66.8,46.4,33.9,18.5,39,26,15,24.89,24.84,13,4,0,0.00
2014-8-4,77.0,69.8,62.5,51.5,34.2,16.1,62,30,14,24.89,24.85,13,3,0,0.00
2014-8-5,72.7,67.0,60.7,52.4,46.7,34.2,69,49,32,24.96,24.88,17,7,0,0.00
2014-8-6,71.9,64.0,59.2,53.0,50.4,42.1,73,62,44,24.97,24.94,11,4,0,0.00
2014-8-7,79.1,69.8,61.5,53.9,48.8,28.1,75,49,23,24.95,24.89,13,5,0,0.00
2014-8-8,82.2,73.7,65.2,45.1,37.8,30.8,46,28,19,24.88,24.84,19,7,0,0.00
2014-8-9,79.5,68.7,61.3,45.2,31.2,18.0,39,25,16,24.92,24.86,20,9,0,0.00
2014-8-10,76.1,68.9,62.4,46.3,31.5,19.6,43,25,17,24.93,24.89,14,4,0,0.00
2014-8-11,78.1,69.2,61.9,40.0,33.0,28.1,41,27,21,24.90,24.86,24,9,0,0.00
2014-8-12,77.3,68.1,62.0,46.9,36.9,19.4,56,32,18,24.92,24.86,29,9,0,0.00
2014-8-13,73.1,66.3,61.9,51.0,35.2,8.5,59,34,11,24.91,24.87,15,4,0,0.00
2014-8-14,73.2,65.6,58.1,51.6,43.3,16.8,71,45,16,24.92,24.87,14,4,0,0.00
2014-8-15,77.7,68.9,62.0,43.8,23.9,2.9,36,20,8,24.95,24.90,16,5,0,0.00
2014-8-16,81.6,72.3,66.0,38.6,19.9,-1.8,28,15,6,24.97,24.92,11,4,0,0.00
2014-8-17,81.4,73.1,67.4,42.0,20.9,-0.2,33,15,6,24.94,24.85,12,4,0,0.00
2014-8-18,75.4,68.3,63.4,42.6,34.0,1.4,41,29,7,24.85,24.78,19,10,0,0.00
2014-8-19,69.1,63.7,58.3,52.4,41.0,29.3,76,45,28,24.81,24.77,15,4,0,0.00
2014-8-20,73.5,65.8,61.0,51.9,45.3,38.3,58,48,40,24.88,24.82,14,3,0,0.00
2014-8-21,77.8,67.6,61.6,46.6,32.5,13.8,47,28,14,24.91,24.86,19,8,0,0.00
2014-8-22,75.9,67.1,61.8,48.5,40.2,29.9,61,38,22,24.90,24.85,22,10,0,0.00
2014-8-23,72.4,64.8,60.0,48.7,37.3,15.6,61,38,16,24.88,24.82,17,5,0,0.00
2014-8-24,69.4,62.6,57.8,48.2,39.7,25.5,65,44,25,24.83,24.80,15,6,0,0.00
2014-8-25,70.8,62.7,56.8,48.4,27.2,-6.0,69,33,6,24.87,24.81,13,4,0,0.00
2014-8-26,69.4,64.3,58.7,45.1,33.0,2.3,58,33,9,24.95,24.88,13,4,0,0.00
2014-8-27,75.0,66.2,59.8,45.0,36.4,22.4,51,34,20,25.02,24.95,14,7,0,0.00
2014-8-28,79.9,70.5,62.3,41.5,18.5,-16.9,38,17,3,25.01,24.91,12,5,0,0.00
2014-8-29,82.0,72.1,65.2,41.9,34.4,13.5,40,26,10,24.91,24.86,18,6,0,0.00
2014-8-30,78.9,71.1,62.5,42.9,31.8,11.2,39,24,10,24.89,24.84,22,11,0,0.00
2014-8-31,74.8,67.4,59.8,43.1,26.8,6.8,41,23,10,24.90,24.85,21,9,0,0.00
2014-9-1,83.1,74.2,67.3,43.9,36.4,20.0,35,26,16,24.86,24.76,18,4,0,0.00
2014-9-2,82.1,74.1,67.9,50.0,37.9,10.1,38,28,9,24.79,24.73,15,5,0,0.00
2014-9-3,78.8,72.4,67.3,48.3,23.4,-21.4,41,20,2,24.74,24.66,14,5,0,0.00
2014-9-4,77.1,69.7,62.8,49.1,40.5,27.4,44,35,21,24.75,24.66,8,3,0,0.00
2014-9-5,76.8,68.4,61.6,48.3,30.3,-36.5,50,29,1,24.86,24.75,19,4,0,0.00
2014-9-6,76.7,70.3,64.4,41.3,27.1,-23.6,29,21,2,24.88,24.83,21,6,0,0.00
2014-9-7,79.1,70.4,65.0,34.0,21.7,8.5,27,17,9,24.83,24.77,18,6,0,0.00
2014-9-8,74.9,67.7,62.6,43.2,27.4,8.6,37,23,10,24.87,24.76,19,5,0,0.00
2014-9-9,75.1,68.3,63.6,30.7,18.6,2.3,24,15,8,24.93,24.87,11,4,0,0.00
2014-9-10,80.1,71.9,66.8,36.6,31.6,12.9,29,23,12,24.91,24.84,13,3,0,0.00
2014-9-11,83.0,73.7,67.1,37.8,34.9,31.1,31,24,18,24.87,24.82,12,6,0,0.00
2014-9-12,83.2,74.9,69.9,40.3,35.7,29.4,30,24,18,24.86,24.79,14,5,0,0.00
2014-9-13,83.2,74.4,69.4,44.0,37.7,34.5,35,27,20,24.81,24.75,13,4,0,0.00
2014-9-14,81.2,74.0,69.0,45.4,38.4,31.3,38,28,20,24.81,24.77,12,4,0,0.00
2014-9-15,81.6,72.4,66.1,43.5,37.1,31.2,35,28,21,24.85,24.80,19,7,0,0.00
2014-9-16,78.9,71.2,66.6,41.2,23.7,0.9,35,19,5,24.86,24.80,28,9,0,0.00
2014-9-17,71.8,66.4,55.9,54.1,40.5,14.9,93,43,12,24.79,24.74,26,10,0,0.00
2014-9-18,64.6,56.6,51.6,55.8,51.9,46.9,97,85,64,24.87,24.73,26,6,0,0.00
2014-9-19,65.8,59.1,52.2,54.9,52.3,43.7,97,79,56,24.91,24.87,11,4,0,0.00
2014-9-20,71.9,63.7,58.3,52.5,49.9,46.0,75,61,45,24.92,24.87,11,4,0,0.00
2014-9-21,71.5,66.0,61.9,53.5,48.9,43.7,68,54,46,24.93,24.89,9,1,0,0.00
2014-9-22,74.7,65.7,61.6,53.0,48.3,42.1,67,54,42,24.95,24.91,12,2,0,0.00
2014-9-23,74.6,66.4,61.0,52.7,46.6,24.7,64,50,23,24.94,24.88,10,3,0,0.00
2014-9-24,75.0,65.1,57.1,53.1,36.7,14.7,66,37,15,24.90,24.84,17,6,0,0.00
2014-9-25,57.9,52.1,45.4,53.6,47.5,34.9,98,85,56,24.97,24.83,21,9,0,0.00
2014-9-26,55.3,47.7,41.7,44.8,39.5,29.9,97,74,48,24.99,24.93,22,7,0,0.00
2014-9-27,54.9,47.7,41.4,50.5,42.7,35.6,98,84,54,24.98,24.92,23,10,0,0.00
2014-9-28,62.3,53.5,48.3,50.1,39.2,29.3,89,60,35,24.93,24.88,13,6,0,0.00
2014-9-29,61.9,55.1,47.1,46.4,42.7,30.9,89,64,34,25.02,24.94,14,5,0,0.00
2014-9-30,68.6,59.2,52.7,50.8,35.9,-40.8,74,49,1,25.00,24.84,20,6,0,0.00
2014-10-1,68.2,59.6,50.2,43.1,35.1,18.2,76,43,19,24.97,24.83,25,10,0,0.00
2014-10-2,76.0,66.5,61.1,37.3,32.5,14.7,37,28,16,25.02,24.97,15,5,0,0.00
2014-10-3,79.2,69.6,63.8,33.8,29.2,22.8,32,23,13,25.06,25.01,15,5,0,0.00
2014-10-4,81.6,72.8,67.7,32.1,27.0,22.1,26,19,12,25.02,24.92,10,4,0,0.00
2014-10-5,82.2,75.0,71.0,28.5,23.3,13.3,19,15,10,24.93,24.87,9,2,0,0.00
2014-10-6,82.2,75.2,71.8,24.9,20.1,11.0,16,13,9,24.90,24.84,14,4,0,0.00
2014-10-7,79.7,72.2,66.2,33.2,19.3,10.5,29,14,9,24.88,24.83,19,6,0,0.00
2014-10-8,73.8,67.9,63.4,34.7,31.4,21.0,32,26,19,24.89,24.84,22,9,0,0.00
2014-10-9,71.7,65.7,58.0,32.7,21.2,4.4,38,19,9,24.94,24.89,20,9,0,0.00
2014-10-10,71.8,63.7,56.8,36.3,30.3,15.1,44,29,17,25.00,24.94,18,6,0,0.00
2014-10-11,74.9,67.1,61.6,39.7,30.6,4.4,44,27,9,25.01,24.94,16,6,0,0.00
2014-10-12,74.5,67.0,60.7,36.0,24.1,7.1,39,21,9,24.94,24.90,24,10,0,0.00
2014-10-13,77.8,69.0,61.9,30.7,25.7,15.3,28,20,12,24.95,24.89,27,8,0,0.00
2014-10-14,63.9,55.2,43.3,44.2,36.2,24.3,96,55,24,24.89,24.76,40,15,0,0.00
2014-10-15,55.7,48.1,43.2,48.6,45.3,42.1,98,90,73,25.04,24.85,29,6,0,0.00
2014-10-16,60.3,51.2,45.9,45.4,42.0,36.2,93,72,50,25.04,24.95,11,2,0,0.00
2014-10-17,57.3,49.5,45.1,44.3,39.9,33.1,83,70,55,25.00,24.93,14,4,0,0.00
2014-10-18,63.1,54.4,48.6,46.9,43.7,40.8,77,67,53,25.00,24.91,10,2,0,0.00
2014-10-19,67.3,58.5,53.1,47.8,39.8,22.0,69,51,27,24.92,24.86,11,3,0,0.00
2014-10-20,58.3,50.2,40.2,50.4,40.1,23.5,97,71,30,25.01,24.86,20,10,0,0.00
2014-10-21,59.6,49.0,41.7,40.0,26.8,1.9,70,43,12,25.08,25.01,20,6,0,0.00
2014-10-22,66.3,58.5,49.5,38.0,25.9,2.2,44,29,12,25.05,25.00,11,3,0,0.00
2014-10-23,67.8,60.9,56.8,42.2,33.4,25.2,50,36,26,25.01,24.93,15,4,0,0.00
2014-10-24,65.5,58.5,49.8,33.8,28.9,23.7,54,33,25,24.94,24.88,29,15,0,0.00
2014-10-25,49.8,46.3,41.8,48.1,42.2,28.0,98,87,50,25.12,24.89,38,11,0,0.00
2014-10-26,47.9,43.2,39.5,39.7,35.6,23.8,95,75,40,25.13,25.06,23,9,0,0.00
2014-10-27,55.3,46.8,39.7,35.3,27.6,1.1,84,50,12,25.09,25.04,18,8,0,0.00
2014-10-28,63.8,55.7,49.5,36.3,21.5,-12.6,44,29,6,25.09,25.05,21,8,0,0.00
2014-10-29,68.7,61.9,55.7,40.2,33.6,18.1,45,35,21,25.09,24.97,19,9,0,0.00
2014-10-30,64.4,58.1,48.0,44.8,32.7,24.5,88,41,24,24.97,24.83,32,8,0,0.00
2014-10-31,50.5,42.8,36.4,47.3,40.2,29.3,98,92,45,24.87,24.75,30,12,0,0.00
2014-11-1,40.3,36.2,33.4,39.8,35.5,32.6,98,97,91,25.08,24.80,18,8,0,0.00
2014-11-2,43.6,39.1,35.3,39.2,35.6,24.2,99,88,50,25.19,25.08,25,7,0,0.00
2014-11-3,51.3,45.2,39.1,33.5,25.7,14.6,73,47,29,25.25,25.19,17,5,0,0.00
2014-11-4,58.6,52.6,46.2,34.0,19.9,6.4,50,28,17,25.26,25.19,21,9,0,0.00
2014-11-5,73.0,63.0,54.1,41.2,36.2,11.6,52,38,18,25.19,25.07,20,8,0,0.00
2014-11-6,68.3,63.6,58.9,39.4,29.2,17.5,46,28,17,25.14,25.08,17,7,0,0.00
2014-11-7,68.6,63.4,59.7,39.6,32.0,15.0,40,31,15,25.11,25.02,6,2,0,0.00
2014-11-8,70.6,64.4,58.6,36.9,28.6,10.8,41,27,13,25.06,24.97,16,3,0,0.00
2014-11-9,70.8,64.2,60.3,41.1,27.0,-1.8,42,26,7,24.99,24.81,12,3,0,0.00
2014-11-10,69.0,63.1,56.3,37.2,30.0,-4.9,42,29,7,24.81,24.76,18,6,0,0.00
2014-11-11,59.8,55.0,47.8,45.5,2.9,-42.1,80,22,1,24.90,24.77,16,8,0,0.00
2014-11-12,55.1,51.4,48.7,48.7,19.9,-27.2,97,42,3,24.98,24.90,17,8,0,0.00
2014-11-13,50.2,47.4,41.5,49.5,45.4,28.4,99,93,51,25.04,24.95,23,9,0,0.00
2014-11-14,52.4,44.7,40.0,42.7,38.1,29.6,97,78,54,25.10,25.06,18,7,0,0.00
2014-11-15,48.1,44.2,37.7,39.2,31.1,4.6,95,62,18,25.15,25.07,23,9,0,0.00
2014-11-16,52.9,47.4,40.7,33.3,3.2,-45.7,74,25,1,25.22,25.14,25,6,0,0.00
2014-11-17,59.2,53.6,48.0,31.6,3.2,-45.6,43,18,1,25.20,25.05,20,5,0,0.00
2014-11-18,54.9,49.8,45.7,15.7,9.3,1.0,25,19,13,25.10,25.05,39,14,0,0.00
2014-11-19,47.4,44.3,40.6,46.9,34.4,7.9,98,75,21,25.12,25.01,32,12,0,0.00
2014-11-20,50.4,42.1,38.5,42.2,33.8,8.1,98,78,18,25.11,25.00,20,8,0,0.00
2014-11-21,49.0,42.6,36.9,44.1,36.4,23.5,98,80,40,25.17,25.02,16,7,0,0.00
2014-11-22,50.4,44.7,39.1,49.9,43.0,31.6,99,94,68,25.18,25.11,27,12,0,0.00
2014-11-23,54.2,48.3,39.8,38.2,-0.1,-28.9,94,18,3,25.29,25.17,27,10,0,0.00
2014-11-24,52.5,49.1,45.6,23.0,7.6,-28.9,36,21,3,25.35,25.23,24,11,0,0.00
2014-11-25,67.1,59.3,49.3,30.5,16.9,-6.5,30,20,6,25.38,25.26,16,8,0,0.00
2014-11-26,73.2,66.6,62.6,30.8,24.5,19.4,25,20,17,25.25,25.11,12,4,0,0.00
2014-11-27,69.6,64.2,60.0,27.8,12.5,-40.8,24,15,1,25.11,25.00,14,6,0,0.00
2014-11-28,61.2,56.4,48.9,4.0,-18.7,-41.8,15,5,1,24.99,24.84,29,12,0,0.00
2014-11-29,50.8,47.4,43.4,47.7,37.4,0.6,97,74,16,24.86,24.81,21,7,0,0.00
2014-11-30,44.4,42.1,37.9,44.1,37.6,1.2,99,89,17,25.08,24.78,34,10,0,0.00
2014-12-1,46.9,44.5,42.6,46.6,44.1,42.3,99,99,91,25.12,24.98,26,11,0,0.00
2014-12-2,48.3,45.2,41.9,48.0,44.6,41.4,100,98,89,24.97,24.75,42,15,0,0.00
2014-12-3,46.7,45.3,43.6,46.7,45.3,43.6,100,100,99,24.94,24.79,50,21,0,0.00
2014-12-4,48.0,45.1,43.0,48.0,45.1,43.0,100,100,100,25.04,24.93,25,8,0,0.00
2014-12-5,46.3,44.9,42.7,46.3,44.9,42.7,100,100,100,25.11,25.02,33,11,0,0.00
2014-12-6,53.8,47.0,43.0,53.1,45.1,39.8,100,93,71,25.22,25.11,22,5,0,0.00
2014-12-7,50.4,48.0,45.6,42.5,37.6,33.4,88,67,56,25.20,25.14,19,7,0,0.00
2014-12-8,58.6,52.7,48.4,44.5,35.8,28.1,69,53,40,25.18,25.11,15,4,0,0.00
2014-12-9,58.4,53.1,47.8,48.8,37.1,12.4,87,59,16,25.13,25.05,13,4,0,0.00
2014-12-10,57.8,50.5,43.7,43.6,31.5,1.1,97,53,10,25.05,24.82,32,12,0,0.00
2014-12-11,46.0,42.3,32.0,45.7,41.9,31.8,99,99,97,24.82,24.63,72,23,0,0.00
2014-12-12,36.2,34.5,32.1,35.9,34.2,31.9,99,99,99,25.10,24.66,24,10,0,0.00
2014-12-13,42.9,35.8,32.1,40.4,32.8,18.0,99,90,40,25.22,25.10,17,4,0,0.00
2014-12-14,43.7,38.9,35.5,35.9,27.8,17.1,95,66,39,25.16,24.99,29,6,0,0.00
2014-12-15,39.7,37.6,34.6,39.4,37.2,34.1,99,98,93,24.99,24.85,47,15,0,0.00
2014-12-16,38.5,35.9,31.2,37.7,35.5,31.0,99,98,94,25.02,24.93,30,11,0,0.00
2014-12-17,38.4,34.4,32.1,38.1,34.1,31.9,99,99,98,25.12,24.97,26,10,0,0.00
2014-12-18,48.5,41.3,36.9,43.9,30.6,-3.8,100,77,11,25.20,25.10,23,5,0,0.00
2014-12-19,44.7,42.2,37.2,43.3,40.3,8.1,99,94,22,25.19,25.13,21,8,0,0.00
2014-12-20,45.3,43.4,39.7,45.0,43.1,39.6,100,99,92,25.26,25.11,22,9,0,0.00
2014-12-21,49.8,47.3,44.7,48.2,46.8,44.7,100,98,86,25.28,25.22,24,11,0,0.00
2014-12-22,57.9,52.5,48.4,45.3,36.9,21.3,87,58,24,25.24,25.15,28,14,0,0.00
2014-12-23,62.7,56.0,51.8,36.5,31.9,14.8,54,41,24,25.17,25.09,26,11,0,0.00
2014-12-24,59.0,46.3,30.0,41.5,29.5,-12.5,98,65,5,25.09,24.85,36,14,0,0.00
2014-12-25,33.3,29.4,26.6,29.6,23.8,20.4,98,80,63,25.12,24.91,28,12,0,0.00
2014-12-26,41.3,33.3,28.0,20.6,14.1,-5.8,69,47,13,25.25,25.12,27,11,0,0.00
2014-12-27,44.2,39.2,33.5,34.1,14.2,-5.8,94,40,13,25.31,25.24,18,7,0,0.00
2014-12-28,47.8,43.2,38.8,32.1,7.7,-25.0,69,31,4,25.28,25.19,16,5,0,0.00
2014-12-29,47.8,42.2,28.8,30.3,-5.1,-49.6,97,27,1,25.18,24.99,31,13,0,0.00
2014-12-30,28.9,26.3,22.5,28.1,19.9,3.3,97,79,42,25.15,24.98,17,2,0,0.00
2014-12-31,37.0,29.6,21.4,4.9,-3.2,-15.7,47,26,10,25.23,25.12,43,15,0,0.00
2015-1-1,45.0,39.2,32.8,18.1,2.4,-5.3,35,21,17,25.14,25.08,22,6,0,0.00
2015-1-2,43.7,40.0,35.7,22.3,11.3,0.9,48,31,19,25.13,25.07,14,5,0,0.00